Alma, Arkansas
Current Conditions -  °F | °C
As of 3:53 PM on Friday 24 Oct 2014 (Local Time) from KFSM Reporting Station
Clear Clear  
Wind Chill: 76°   Ceiling: Unl
Heat Index: 76°   Visibility: 10mi
Dew Point: 58°   Wind: 3mph
Humidity: 54%   Direction: 180°S
Pressure: 30.07"   Gusts: NA
Location:  35.48°N, 94.22°W
Report Text: KFSM 242053Z AUTO 18003KT 10SM CLR 24/14 A3007 RMK AO2 SLP180 T02440144 56020 TSNO
Loading
Personal Weather Stations






























Interactive Weather Map
Tropical Storm Tracking
New forecast layout! Learn more

10-Day Weather Forecast

Advertisements
Track Severe Weather on mobile